sensor_id;sensor_type;location;lat;lon;timestamp;pressure;altitude;pressure_sealevel;temperature;humidity
18813;BME280;9534;51.140;6.296;2023-06-14T00:00:49;100278.50;;;16.87;100.00
18813;BME280;9534;51.140;6.296;2023-06-14T00:04:55;100286.94;;;16.75;100.00
18813;BME280;9534;51.140;6.296;2023-06-14T00:08:58;100287.13;;;16.69;100.00
18813;BME280;9534;51.140;6.296;2023-06-14T00:13:02;100295.06;;;16.60;100.00
18813;BME280;9534;51.140;6.296;2023-06-14T00:17:05;100291.75;;;16.42;100.00
18813;BME280;9534;51.140;6.296;2023-06-14T00:21:10;100285.75;;;16.28;100.00
18813;BME280;9534;51.140;6.296;2023-06-14T00:25:13;100290.00;;;16.14;100.00
18813;BME280;9534;51.140;6.296;2023-06-14T00:29:29;100292.69;;;16.09;100.00
18813;BME280;9534;51.140;6.296;2023-06-14T00:33:32;100293.44;;;16.05;100.00
18813;BME280;9534;51.140;6.296;2023-06-14T00:37:36;100284.19;;;15.95;100.00
18813;BME280;9534;51.140;6.296;2023-06-14T00:41:40;100297.53;;;16.03;100.00
18813;BME280;9534;51.140;6.296;2023-06-14T00:45:43;100300.84;;;16.21;100.00
18813;BME280;9534;51.140;6.296;2023-06-14T00:49:48;100300.38;;;16.08;100.00
18813;BME280;9534;51.140;6.296;2023-06-14T00:53:54;100305.59;;;16.25;100.00
18813;BME280;9534;51.140;6.296;2023-06-14T00:57:57;100310.47;;;16.56;100.00
18813;BME280;9534;51.140;6.296;2023-06-14T01:02:00;100301.59;;;16.54;100.00
18813;BME280;9534;51.140;6.296;2023-06-14T01:06:23;100304.38;;;16.16;100.00
18813;BME280;9534;51.140;6.296;2023-06-14T01:10:35;100315.13;;;15.97;100.00
18813;BME280;9534;51.140;6.296;2023-06-14T01:14:41;100307.69;;;15.81;100.00
18813;BME280;9534;51.140;6.296;2023-06-14T01:18:44;100301.41;;;15.69;100.00
18813;BME280;9534;51.140;6.296;2023-06-14T01:22:54;100299.91;;;15.78;100.00
18813;BME280;9534;51.140;6.296;2023-06-14T01:26:57;100299.16;;;15.82;100.00
18813;BME280;9534;51.140;6.296;2023-06-14T01:31:02;100301.91;;;15.66;100.00
18813;BME280;9534;51.140;6.296;2023-06-14T01:35:07;100297.97;;;15.62;100.00
18813;BME280;9534;51.140;6.296;2023-06-14T01:39:13;100303.34;;;15.52;100.00
18813;BME280;9534;51.140;6.296;2023-06-14T01:43:17;100293.88;;;15.48;100.00
18813;BME280;9534;51.140;6.296;2023-06-14T01:47:21;100307.94;;;15.79;100.00
18813;BME280;9534;51.140;6.296;2023-06-14T01:51:24;100292.03;;;15.86;100.00
18813;BME280;9534;51.140;6.296;2023-06-14T01:55:29;100300.38;;;16.08;100.00
18813;BME280;9534;51.140;6.296;2023-06-14T01:59:35;100304.25;;;16.28;100.00
18813;BME280;9534;51.140;6.296;2023-06-14T02:03:38;100297.72;;;16.34;100.00
18813;BME280;9534;51.140;6.296;2023-06-14T02:07:41;100299.47;;;16.40;100.00
18813;BME280;9534;51.140;6.296;2023-06-14T02:11:46;100307.25;;;16.26;100.00
18813;BME280;9534;51.140;6.296;2023-06-14T02:15:49;100309.19;;;16.26;100.00
18813;BME280;9534;51.140;6.296;2023-06-14T02:19:56;100309.06;;;16.16;100.00
18813;BME280;9534;51.140;6.296;2023-06-14T02:24:00;100318.78;;;16.18;100.00
18813;BME280;9534;51.140;6.296;2023-06-14T02:28:04;100308.09;;;16.06;100.00
18813;BME280;9534;51.140;6.296;2023-06-14T02:32:08;100316.28;;;16.01;100.00
18813;BME280;9534;51.140;6.296;2023-06-14T02:36:13;100320.13;;;16.00;100.00
18813;BME280;9534;51.140;6.296;2023-06-14T02:40:16;100321.97;;;15.78;100.00
18813;BME280;9534;51.140;6.296;2023-06-14T02:44:23;100314.78;;;15.77;100.00
18813;BME280;9534;51.140;6.296;2023-06-14T02:48:27;100329.69;;;15.76;100.00
18813;BME280;9534;51.140;6.296;2023-06-14T02:52:30;100320.72;;;15.52;100.00
18813;BME280;9534;51.140;6.296;2023-06-14T02:56:35;100321.47;;;15.48;100.00
18813;BME280;9534;51.140;6.296;2023-06-14T03:00:41;100326.66;;;15.44;100.00
18813;BME280;9534;51.140;6.296;2023-06-14T03:04:45;100323.03;;;15.44;100.00
18813;BME280;9534;51.140;6.296;2023-06-14T03:08:51;100325.63;;;15.34;100.00
18813;BME280;9534;51.140;6.296;2023-06-14T03:12:57;100334.66;;;15.46;100.00
18813;BME280;9534;51.140;6.296;2023-06-14T03:17:02;100331.81;;;15.41;100.00
18813;BME280;9534;51.140;6.296;2023-06-14T03:21:09;100335.44;;;15.41;100.00
18813;BME280;9534;51.140;6.296;2023-06-14T03:25:16;100329.66;;;15.43;100.00
18813;BME280;9534;51.140;6.296;2023-06-14T03:29:24;100333.34;;;15.48;100.00
18813;BME280;9534;51.140;6.296;2023-06-14T03:33:28;100340.28;;;15.51;100.00
18813;BME280;9534;51.140;6.296;2023-06-14T03:37:32;100347.38;;;15.47;100.00
18813;BME280;9534;51.140;6.296;2023-06-14T03:41:35;100354.91;;;15.68;100.00
18813;BME280;9534;51.140;6.296;2023-06-14T03:45:38;100347.13;;;15.65;100.00
18813;BME280;9534;51.140;6.296;2023-06-14T03:49:44;100349.22;;;15.58;100.00
18813;BME280;9534;51.140;6.296;2023-06-14T03:53:48;100357.91;;;15.50;100.00
18813;BME280;9534;51.140;6.296;2023-06-14T03:58:11;100366.59;;;15.42;100.00
18813;BME280;9534;51.140;6.296;2023-06-14T04:02:15;100370.28;;;15.47;100.00
18813;BME280;9534;51.140;6.296;2023-06-14T04:06:21;100374.94;;;15.47;100.00
18813;BME280;9534;51.140;6.296;2023-06-14T04:10:26;100371.47;;;15.51;100.00
18813;BME280;9534;51.140;6.296;2023-06-14T04:14:29;100368.97;;;15.66;100.00
18813;BME280;9534;51.140;6.296;2023-06-14T04:18:35;100374.22;;;15.68;100.00
18813;BME280;9534;51.140;6.296;2023-06-14T04:22:39;100368.72;;;15.68;100.00
18813;BME280;9534;51.140;6.296;2023-06-14T04:26:43;100384.84;;;15.76;100.00
18813;BME280;9534;51.140;6.296;2023-06-14T04:30:48;100382.19;;;15.81;100.00
18813;BME280;9534;51.140;6.296;2023-06-14T04:34:53;100379.03;;;15.89;100.00
18813;BME280;9534;51.140;6.296;2023-06-14T04:38:59;100388.38;;;15.88;100.00
18813;BME280;9534;51.140;6.296;2023-06-14T04:43:02;100386.88;;;15.97;100.00
18813;BME280;9534;51.140;6.296;2023-06-14T04:47:06;100398.69;;;16.08;100.00
18813;BME280;9534;51.140;6.296;2023-06-14T04:51:10;100398.75;;;16.13;100.00
18813;BME280;9534;51.140;6.296;2023-06-14T04:55:14;100398.66;;;16.25;100.00
18813;BME280;9534;51.140;6.296;2023-06-14T04:59:18;100399.56;;;16.30;100.00
18813;BME280;9534;51.140;6.296;2023-06-14T05:03:21;100405.94;;;16.47;100.00
18813;BME280;9534;51.140;6.296;2023-06-14T05:07:25;100406.72;;;16.64;100.00
18813;BME280;9534;51.140;6.296;2023-06-14T05:11:30;100416.25;;;16.73;100.00
18813;BME280;9534;51.140;6.296;2023-06-14T05:15:33;100420.97;;;16.94;100.00
18813;BME280;9534;51.140;6.296;2023-06-14T05:19:36;100417.25;;;17.05;100.00
18813;BME280;9534;51.140;6.296;2023-06-14T05:23:39;100426.75;;;17.14;100.00
18813;BME280;9534;51.140;6.296;2023-06-14T05:27:44;100425.84;;;17.30;100.00
18813;BME280;9534;51.140;6.296;2023-06-14T05:31:47;100419.69;;;17.44;100.00
18813;BME280;9534;51.140;6.296;2023-06-14T05:35:50;100419.59;;;17.61;100.00
18813;BME280;9534;51.140;6.296;2023-06-14T05:39:53;100425.34;;;17.81;100.00
18813;BME280;9534;51.140;6.296;2023-06-14T05:43:57;100428.72;;;17.88;100.00
18813;BME280;9534;51.140;6.296;2023-06-14T05:48:01;100429.22;;;18.11;100.00
18813;BME280;9534;51.140;6.296;2023-06-14T05:52:05;100444.00;;;18.27;100.00
18813;BME280;9534;51.140;6.296;2023-06-14T05:56:08;100450.06;;;18.55;100.00
18813;BME280;9534;51.140;6.296;2023-06-14T06:00:13;100464.66;;;18.77;100.00
18813;BME280;9534;51.140;6.296;2023-06-14T06:04:17;100460.56;;;18.89;100.00
18813;BME280;9534;51.140;6.296;2023-06-14T06:08:20;100465.97;;;19.11;100.00
18813;BME280;9534;51.140;6.296;2023-06-14T06:12:23;100471.75;;;19.09;100.00
18813;BME280;9534;51.140;6.296;2023-06-14T06:16:27;100468.50;;;19.22;100.00
18813;BME280;9534;51.140;6.296;2023-06-14T06:20:31;100473.06;;;19.38;100.00
18813;BME280;9534;51.140;6.296;2023-06-14T06:24:33;100488.63;;;19.44;100.00
18813;BME280;9534;51.140;6.296;2023-06-14T06:28:37;100491.47;;;19.69;100.00
18813;BME280;9534;51.140;6.296;2023-06-14T06:32:41;100492.66;;;19.93;100.00
18813;BME280;9534;51.140;6.296;2023-06-14T06:36:44;100492.72;;;20.13;100.00
18813;BME280;9534;51.140;6.296;2023-06-14T06:40:47;100495.25;;;20.34;100.00
18813;BME280;9534;51.140;6.296;2023-06-14T06:44:50;100504.44;;;20.50;100.00
18813;BME280;9534;51.140;6.296;2023-06-14T06:48:55;100501.06;;;20.53;100.00
18813;BME280;9534;51.140;6.296;2023-06-14T06:52:58;100509.41;;;20.63;100.00
18813;BME280;9534;51.140;6.296;2023-06-14T06:57:01;100512.19;;;20.68;100.00
18813;BME280;9534;51.140;6.296;2023-06-14T07:01:04;100517.22;;;20.71;100.00
18813;BME280;9534;51.140;6.296;2023-06-14T07:05:08;100523.88;;;20.90;100.00
18813;BME280;9534;51.140;6.296;2023-06-14T07:09:11;100534.75;;;20.86;100.00
18813;BME280;9534;51.140;6.296;2023-06-14T07:13:16;100536.13;;;20.99;100.00
18813;BME280;9534;51.140;6.296;2023-06-14T07:17:19;100538.34;;;21.02;100.00
18813;BME280;9534;51.140;6.296;2023-06-14T07:21:23;100550.03;;;21.23;100.00
18813;BME280;9534;51.140;6.296;2023-06-14T07:25:27;100549.47;;;21.17;100.00
18813;BME280;9534;51.140;6.296;2023-06-14T07:29:30;100545.56;;;21.18;100.00
18813;BME280;9534;51.140;6.296;2023-06-14T07:33:33;100542.78;;;21.22;100.00
18813;BME280;9534;51.140;6.296;2023-06-14T07:37:38;100544.91;;;21.50;100.00
18813;BME280;9534;51.140;6.296;2023-06-14T07:41:41;100547.38;;;21.62;98.29
18813;BME280;9534;51.140;6.296;2023-06-14T07:45:44;100546.56;;;21.56;94.79
18813;BME280;9534;51.140;6.296;2023-06-14T07:50:06;100552.59;;;21.88;100.00
18813;BME280;9534;51.140;6.296;2023-06-14T07:54:12;100560.84;;;22.13;95.01
18813;BME280;9534;51.140;6.296;2023-06-14T07:58:16;100562.25;;;22.06;94.71
18813;BME280;9534;51.140;6.296;2023-06-14T08:02:18;100549.19;;;22.49;90.39
18813;BME280;9534;51.140;6.296;2023-06-14T08:06:22;100551.19;;;22.34;85.38
18813;BME280;9534;51.140;6.296;2023-06-14T08:10:26;100549.44;;;22.53;85.23
18813;BME280;9534;51.140;6.296;2023-06-14T08:14:29;100546.41;;;22.83;85.53
18813;BME280;9534;51.140;6.296;2023-06-14T08:18:36;100542.00;;;23.05;79.27
18813;BME280;9534;51.140;6.296;2023-06-14T08:22:39;100548.25;;;23.73;73.87
18813;BME280;9534;51.140;6.296;2023-06-14T08:26:46;100553.06;;;23.44;68.11
18813;BME280;9534;51.140;6.296;2023-06-14T08:30:49;100555.84;;;25.01;68.21
18813;BME280;9534;51.140;6.296;2023-06-14T08:34:52;100561.88;;;24.95;59.81
18813;BME280;9534;51.140;6.296;2023-06-14T08:39:06;100559.41;;;24.56;59.68
18813;BME280;9534;51.140;6.296;2023-06-14T08:43:12;100561.81;;;25.45;57.17
18813;BME280;9534;51.140;6.296;2023-06-14T08:47:15;100565.94;;;26.41;49.10
18813;BME280;9534;51.140;6.296;2023-06-14T08:51:19;100568.13;;;25.64;48.49
18813;BME280;9534;51.140;6.296;2023-06-14T08:55:24;100571.44;;;25.07;46.85
18813;BME280;9534;51.140;6.296;2023-06-14T08:59:34;100556.31;;;25.08;44.34
18813;BME280;9534;51.140;6.296;2023-06-14T09:03:40;100562.41;;;24.78;43.39
18813;BME280;9534;51.140;6.296;2023-06-14T09:07:44;100568.91;;;26.10;42.78
18813;BME280;9534;51.140;6.296;2023-06-14T09:11:47;100566.09;;;26.58;42.98
18813;BME280;9534;51.140;6.296;2023-06-14T09:15:51;100566.59;;;25.58;41.42
18813;BME280;9534;51.140;6.296;2023-06-14T09:19:55;100576.31;;;25.33;40.79
18813;BME280;9534;51.140;6.296;2023-06-14T09:23:58;100573.81;;;25.32;40.97
18813;BME280;9534;51.140;6.296;2023-06-14T09:28:02;100575.41;;;25.19;40.99
18813;BME280;9534;51.140;6.296;2023-06-14T09:32:07;100573.06;;;25.99;42.50
18813;BME280;9534;51.140;6.296;2023-06-14T09:36:11;100576.78;;;26.08;42.08
18813;BME280;9534;51.140;6.296;2023-06-14T09:40:17;100583.44;;;26.12;43.56
18813;BME280;9534;51.140;6.296;2023-06-14T09:44:22;100576.25;;;25.20;44.26
18813;BME280;9534;51.140;6.296;2023-06-14T09:48:31;100584.50;;;26.02;44.12
18813;BME280;9534;51.140;6.296;2023-06-14T09:52:35;100594.56;;;26.17;43.55
18813;BME280;9534;51.140;6.296;2023-06-14T09:56:38;100591.41;;;26.32;44.93
18813;BME280;9534;51.140;6.296;2023-06-14T10:00:43;100579.16;;;25.60;44.99
18813;BME280;9534;51.140;6.296;2023-06-14T10:04:55;100570.94;;;25.37;44.86
18813;BME280;9534;51.140;6.296;2023-06-14T10:08:59;100577.44;;;25.91;45.32
18813;BME280;9534;51.140;6.296;2023-06-14T10:13:03;100578.31;;;25.87;44.00
18813;BME280;9534;51.140;6.296;2023-06-14T10:17:06;100581.13;;;26.40;44.55
18813;BME280;9534;51.140;6.296;2023-06-14T10:21:16;100582.81;;;25.74;45.41
18813;BME280;9534;51.140;6.296;2023-06-14T10:25:26;100578.31;;;25.87;48.29
18813;BME280;9534;51.140;6.296;2023-06-14T10:29:30;100590.38;;;26.28;47.74
18813;BME280;9534;51.140;6.296;2023-06-14T10:33:35;100576.53;;;25.64;48.13
18813;BME280;9534;51.140;6.296;2023-06-14T10:37:43;100576.69;;;26.61;47.72
18813;BME280;9534;51.140;6.296;2023-06-14T10:41:52;100571.44;;;27.56;46.96
18813;BME280;9534;51.140;6.296;2023-06-14T10:46:11;100576.59;;;26.88;48.25
18813;BME280;9534;51.140;6.296;2023-06-14T10:50:15;100579.91;;;25.93;48.54
18813;BME280;9534;51.140;6.296;2023-06-14T10:54:22;100579.50;;;26.13;50.14
18813;BME280;9534;51.140;6.296;2023-06-14T10:58:27;100564.94;;;25.57;50.77
18813;BME280;9534;51.140;6.296;2023-06-14T11:02:40;100567.44;;;27.18;49.66
18813;BME280;9534;51.140;6.296;2023-06-14T11:06:49;100574.25;;;26.82;48.98
18813;BME280;9534;51.140;6.296;2023-06-14T11:10:56;100585.63;;;26.63;46.88
18813;BME280;9534;51.140;6.296;2023-06-14T11:15:00;100585.13;;;25.99;50.12
18813;BME280;9534;51.140;6.296;2023-06-14T11:19:05;100570.06;;;25.95;47.25
18813;BME280;9534;51.140;6.296;2023-06-14T11:23:08;100581.84;;;26.19;46.24
18813;BME280;9534;51.140;6.296;2023-06-14T11:27:12;100575.88;;;26.61;45.05
18813;BME280;9534;51.140;6.296;2023-06-14T11:31:16;100574.69;;;26.13;48.15
18813;BME280;9534;51.140;6.296;2023-06-14T11:35:19;100574.91;;;26.17;47.29
18813;BME280;9534;51.140;6.296;2023-06-14T11:39:24;100573.38;;;26.46;47.82
18813;BME280;9534;51.140;6.296;2023-06-14T11:43:30;100559.00;;;26.12;48.18
18813;BME280;9534;51.140;6.296;2023-06-14T11:47:35;100560.97;;;27.18;46.68
18813;BME280;9534;51.140;6.296;2023-06-14T11:51:38;100555.78;;;26.89;45.49
18813;BME280;9534;51.140;6.296;2023-06-14T11:55:42;100568.38;;;26.56;45.36
18813;BME280;9534;51.140;6.296;2023-06-14T11:59:49;100563.97;;;27.52;44.38
18813;BME280;9534;51.140;6.296;2023-06-14T12:03:53;100582.50;;;26.51;45.49
18813;BME280;9534;51.140;6.296;2023-06-14T12:07:59;100582.47;;;26.30;43.05
18813;BME280;9534;51.140;6.296;2023-06-14T12:12:03;100574.63;;;28.02;41.97
18813;BME280;9534;51.140;6.296;2023-06-14T12:16:08;100574.09;;;25.89;43.82
18813;BME280;9534;51.140;6.296;2023-06-14T12:20:12;100568.94;;;26.80;44.42
18813;BME280;9534;51.140;6.296;2023-06-14T12:24:16;100567.38;;;27.40;43.69
18813;BME280;9534;51.140;6.296;2023-06-14T12:28:19;100567.94;;;27.20;42.49
18813;BME280;9534;51.140;6.296;2023-06-14T12:32:24;100562.03;;;27.91;42.47
18813;BME280;9534;51.140;6.296;2023-06-14T12:36:27;100565.34;;;27.32;42.98
18813;BME280;9534;51.140;6.296;2023-06-14T12:40:31;100569.28;;;28.39;42.37
18813;BME280;9534;51.140;6.296;2023-06-14T12:44:34;100571.06;;;27.19;43.08
18813;BME280;9534;51.140;6.296;2023-06-14T12:48:43;100570.91;;;27.24;44.96
18813;BME280;9534;51.140;6.296;2023-06-14T12:52:46;100552.88;;;27.47;43.70
18813;BME280;9534;51.140;6.296;2023-06-14T12:56:49;100555.53;;;28.38;43.31
18813;BME280;9534;51.140;6.296;2023-06-14T13:00:53;100570.47;;;28.64;43.41
18813;BME280;9534;51.140;6.296;2023-06-14T13:04:58;100564.16;;;28.41;43.03
18813;BME280;9534;51.140;6.296;2023-06-14T13:09:02;100560.50;;;28.66;39.72
18813;BME280;9534;51.140;6.296;2023-06-14T13:13:05;100571.63;;;28.80;42.78
18813;BME280;9534;51.140;6.296;2023-06-14T13:17:10;100564.97;;;29.18;41.52
18813;BME280;9534;51.140;6.296;2023-06-14T13:21:15;100568.47;;;28.73;42.59
18813;BME280;9534;51.140;6.296;2023-06-14T13:25:18;100557.78;;;28.19;43.73
18813;BME280;9534;51.140;6.296;2023-06-14T13:29:21;100549.41;;;27.80;43.79
18813;BME280;9534;51.140;6.296;2023-06-14T13:33:24;100554.22;;;28.78;42.12
18813;BME280;9534;51.140;6.296;2023-06-14T13:37:28;100568.63;;;28.68;43.12
18813;BME280;9534;51.140;6.296;2023-06-14T13:41:31;100554.94;;;28.02;43.90
18813;BME280;9534;51.140;6.296;2023-06-14T13:45:36;100560.81;;;29.15;43.17
18813;BME280;9534;51.140;6.296;2023-06-14T13:49:39;100560.53;;;28.92;42.59
18813;BME280;9534;51.140;6.296;2023-06-14T13:53:45;100552.72;;;28.80;42.05
18813;BME280;9534;51.140;6.296;2023-06-14T13:57:48;100551.13;;;27.98;42.85
18813;BME280;9534;51.140;6.296;2023-06-14T14:01:51;100555.69;;;29.80;41.89
18813;BME280;9534;51.140;6.296;2023-06-14T14:05:54;100543.63;;;28.75;42.49
18813;BME280;9534;51.140;6.296;2023-06-14T14:10:00;100543.88;;;29.32;41.01
18813;BME280;9534;51.140;6.296;2023-06-14T14:14:03;100540.78;;;29.71;40.44
18813;BME280;9534;51.140;6.296;2023-06-14T14:18:07;100546.72;;;29.15;41.29
18813;BME280;9534;51.140;6.296;2023-06-14T14:22:10;100540.28;;;29.06;41.28
18813;BME280;9534;51.140;6.296;2023-06-14T14:26:14;100538.78;;;28.75;41.64
18813;BME280;9534;51.140;6.296;2023-06-14T14:30:17;100545.53;;;29.33;41.24
18813;BME280;9534;51.140;6.296;2023-06-14T14:34:25;100545.16;;;29.60;42.64
18813;BME280;9534;51.140;6.296;2023-06-14T14:38:28;100530.81;;;28.94;43.27
18813;BME280;9534;51.140;6.296;2023-06-14T14:42:32;100541.28;;;28.43;44.03
18813;BME280;9534;51.140;6.296;2023-06-14T14:46:35;100543.81;;;27.58;44.89
18813;BME280;9534;51.140;6.296;2023-06-14T14:50:39;100533.78;;;27.74;43.29
18813;BME280;9534;51.140;6.296;2023-06-14T14:54:42;100529.31;;;28.29;43.58
18813;BME280;9534;51.140;6.296;2023-06-14T14:58:46;100522.41;;;28.86;44.18
18813;BME280;9534;51.140;6.296;2023-06-14T15:02:50;100531.28;;;28.03;44.94
18813;BME280;9534;51.140;6.296;2023-06-14T15:06:53;100537.97;;;28.92;43.88
18813;BME280;9534;51.140;6.296;2023-06-14T15:10:56;100540.28;;;28.39;45.49
18813;BME280;9534;51.140;6.296;2023-06-14T15:15:01;100543.94;;;29.07;43.99
18813;BME280;9534;51.140;6.296;2023-06-14T15:19:05;100541.72;;;29.29;42.76
18813;BME280;9534;51.140;6.296;2023-06-14T15:23:08;100539.03;;;29.41;42.93
18813;BME280;9534;51.140;6.296;2023-06-14T15:27:11;100546.88;;;29.27;43.72
18813;BME280;9534;51.140;6.296;2023-06-14T15:31:16;100538.94;;;29.12;44.05
18813;BME280;9534;51.140;6.296;2023-06-14T15:35:19;100528.34;;;29.09;43.29
18813;BME280;9534;51.140;6.296;2023-06-14T15:39:22;100537.97;;;28.92;43.98
18813;BME280;9534;51.140;6.296;2023-06-14T15:43:25;100540.81;;;29.00;43.36
18813;BME280;9534;51.140;6.296;2023-06-14T15:47:30;100538.97;;;28.79;43.83
18813;BME280;9534;51.140;6.296;2023-06-14T15:51:33;100542.25;;;29.14;42.95
18813;BME280;9534;51.140;6.296;2023-06-14T15:55:36;100531.03;;;28.98;43.49
18813;BME280;9534;51.140;6.296;2023-06-14T15:59:39;100527.06;;;28.98;43.51
18813;BME280;9534;51.140;6.296;2023-06-14T16:03:44;100531.47;;;29.25;44.29
18813;BME280;9534;51.140;6.296;2023-06-14T16:07:47;100517.94;;;28.68;43.70
18813;BME280;9534;51.140;6.296;2023-06-14T16:11:50;100530.16;;;29.05;43.39
18813;BME280;9534;51.140;6.296;2023-06-14T16:15:53;100531.28;;;29.21;43.63
18813;BME280;9534;51.140;6.296;2023-06-14T16:19:57;100521.69;;;28.04;44.16
18813;BME280;9534;51.140;6.296;2023-06-14T16:24:00;100520.13;;;27.89;45.64
18813;BME280;9534;51.140;6.296;2023-06-14T16:28:04;100528.25;;;27.99;44.56
18813;BME280;9534;51.140;6.296;2023-06-14T16:32:08;100519.28;;;26.89;46.67
18813;BME280;9534;51.140;6.296;2023-06-14T16:36:12;100519.44;;;26.93;47.25
18813;BME280;9534;51.140;6.296;2023-06-14T16:40:15;100534.59;;;28.22;47.22
18813;BME280;9534;51.140;6.296;2023-06-14T16:44:19;100532.81;;;28.34;47.23
18813;BME280;9534;51.140;6.296;2023-06-14T16:48:22;100520.38;;;28.10;45.80
18813;BME280;9534;51.140;6.296;2023-06-14T16:52:27;100535.69;;;27.95;45.82
18813;BME280;9534;51.140;6.296;2023-06-14T16:56:30;100537.84;;;28.54;45.92
18813;BME280;9534;51.140;6.296;2023-06-14T17:00:33;100542.53;;;28.03;45.12
18813;BME280;9534;51.140;6.296;2023-06-14T17:04:36;100554.78;;;27.68;45.29
18813;BME280;9534;51.140;6.296;2023-06-14T17:08:40;100543.44;;;27.51;45.64
18813;BME280;9534;51.140;6.296;2023-06-14T17:12:43;100552.25;;;27.58;46.24
18813;BME280;9534;51.140;6.296;2023-06-14T17:16:46;100548.06;;;27.17;47.49
18813;BME280;9534;51.140;6.296;2023-06-14T17:20:50;100552.16;;;27.41;47.17
18813;BME280;9534;51.140;6.296;2023-06-14T17:24:54;100556.94;;;27.71;46.94
18813;BME280;9534;51.140;6.296;2023-06-14T17:28:58;100559.16;;;27.22;46.34
18813;BME280;9534;51.140;6.296;2023-06-14T17:33:01;100556.69;;;27.51;46.51
18813;BME280;9534;51.140;6.296;2023-06-14T17:37:05;100562.41;;;26.71;47.39
18813;BME280;9534;51.140;6.296;2023-06-14T17:41:09;100563.84;;;27.04;47.05
18813;BME280;9534;51.140;6.296;2023-06-14T17:45:12;100564.91;;;26.73;48.84
18813;BME280;9534;51.140;6.296;2023-06-14T17:49:15;100570.28;;;26.34;48.79
18813;BME280;9534;51.140;6.296;2023-06-14T17:53:19;100575.56;;;26.84;47.44
18813;BME280;9534;51.140;6.296;2023-06-14T17:57:24;100578.94;;;26.95;47.90
18813;BME280;9534;51.140;6.296;2023-06-14T18:01:27;100575.56;;;26.84;47.93
18813;BME280;9534;51.140;6.296;2023-06-14T18:05:30;100578.56;;;26.52;49.50
18813;BME280;9534;51.140;6.296;2023-06-14T18:09:33;100582.00;;;26.01;49.66
18813;BME280;9534;51.140;6.296;2023-06-14T18:13:38;100587.28;;;26.16;50.77
18813;BME280;9534;51.140;6.296;2023-06-14T18:17:41;100589.69;;;25.95;52.66
18813;BME280;9534;51.140;6.296;2023-06-14T18:21:45;100584.25;;;25.72;51.78
18813;BME280;9534;51.140;6.296;2023-06-14T18:25:49;100587.66;;;25.69;53.04
18813;BME280;9534;51.140;6.296;2023-06-14T18:29:53;100593.69;;;25.17;53.83
18813;BME280;9534;51.140;6.296;2023-06-14T18:33:56;100600.19;;;25.31;54.27
18813;BME280;9534;51.140;6.296;2023-06-14T18:37:59;100597.72;;;25.43;54.08
18813;BME280;9534;51.140;6.296;2023-06-14T18:42:03;100598.91;;;24.73;55.03
18813;BME280;9534;51.140;6.296;2023-06-14T18:46:09;100598.38;;;24.71;55.85
18813;BME280;9534;51.140;6.296;2023-06-14T18:50:12;100606.88;;;24.98;55.14
18813;BME280;9534;51.140;6.296;2023-06-14T18:54:16;100604.28;;;24.70;58.28
18813;BME280;9534;51.140;6.296;2023-06-14T18:58:19;100602.66;;;24.45;57.80
18813;BME280;9534;51.140;6.296;2023-06-14T19:02:24;100605.66;;;24.30;60.58
18813;BME280;9534;51.140;6.296;2023-06-14T19:06:29;100606.72;;;23.92;59.74
18813;BME280;9534;51.140;6.296;2023-06-14T19:10:32;100609.16;;;23.75;61.48
18813;BME280;9534;51.140;6.296;2023-06-14T19:14:36;100607.44;;;23.51;65.05
18813;BME280;9534;51.140;6.296;2023-06-14T19:18:40;100607.31;;;23.38;65.27
18813;BME280;9534;51.140;6.296;2023-06-14T19:22:43;100612.78;;;23.24;70.16
18813;BME280;9534;51.140;6.296;2023-06-14T19:26:48;100609.09;;;22.95;70.27
18813;BME280;9534;51.140;6.296;2023-06-14T19:30:51;100619.31;;;22.71;72.67
18813;BME280;9534;51.140;6.296;2023-06-14T19:34:56;100624.78;;;22.48;75.04
18813;BME280;9534;51.140;6.296;2023-06-14T19:39:02;100626.00;;;22.22;79.35
18813;BME280;9534;51.140;6.296;2023-06-14T19:43:06;100623.59;;;22.01;82.61
18813;BME280;9534;51.140;6.296;2023-06-14T19:47:09;100622.81;;;21.90;84.53
18813;BME280;9534;51.140;6.296;2023-06-14T19:51:14;100623.41;;;21.67;87.81
18813;BME280;9534;51.140;6.296;2023-06-14T19:55:17;100630.66;;;21.58;92.46
18813;BME280;9534;51.140;6.296;2023-06-14T19:59:20;100630.13;;;21.51;94.35
18813;BME280;9534;51.140;6.296;2023-06-14T20:03:23;100646.34;;;21.34;95.09
18813;BME280;9534;51.140;6.296;2023-06-14T20:07:28;100641.88;;;21.18;100.00
18813;BME280;9534;51.140;6.296;2023-06-14T20:11:32;100651.34;;;21.18;100.00
18813;BME280;9534;51.140;6.296;2023-06-14T20:15:35;100654.69;;;21.00;100.00
18813;BME280;9534;51.140;6.296;2023-06-14T20:19:38;100656.91;;;20.98;100.00
18813;BME280;9534;51.140;6.296;2023-06-14T20:23:42;100662.75;;;20.91;100.00
18813;BME280;9534;51.140;6.296;2023-06-14T20:27:45;100662.72;;;20.81;100.00
18813;BME280;9534;51.140;6.296;2023-06-14T20:31:49;100668.50;;;20.70;100.00
18813;BME280;9534;51.140;6.296;2023-06-14T20:35:52;100666.25;;;20.57;100.00
18813;BME280;9534;51.140;6.296;2023-06-14T20:39:57;100668.78;;;20.53;100.00
18813;BME280;9534;51.140;6.296;2023-06-14T20:44:04;100661.25;;;20.44;100.00
18813;BME280;9534;51.140;6.296;2023-06-14T20:48:08;100672.91;;;20.41;100.00
18813;BME280;9534;51.140;6.296;2023-06-14T20:52:12;100669.25;;;20.30;100.00
18813;BME280;9534;51.140;6.296;2023-06-14T20:56:16;100675.13;;;20.39;100.00
18813;BME280;9534;51.140;6.296;2023-06-14T21:00:19;100676.47;;;20.26;100.00
18813;BME280;9534;51.140;6.296;2023-06-14T21:04:22;100686.16;;;20.19;100.00
18813;BME280;9534;51.140;6.296;2023-06-14T21:08:25;100691.97;;;20.17;100.00
18813;BME280;9534;51.140;6.296;2023-06-14T21:12:30;100686.03;;;19.99;100.00
18813;BME280;9534;51.140;6.296;2023-06-14T21:16:33;100689.38;;;20.01;100.00
18813;BME280;9534;51.140;6.296;2023-06-14T21:20:36;100691.00;;;19.92;100.00
18813;BME280;9534;51.140;6.296;2023-06-14T21:24:39;100679.78;;;19.77;100.00